sensor_id;sensor_type;location;lat;lon;timestamp;P1;durP1;ratioP1;P2;durP2;ratioP2
8365;SDS011;4220;42.502;24.188;2022-12-29T00:00:01;15.53;;;10.27;;
8365;SDS011;4220;42.502;24.188;2022-12-29T00:02:29;18.40;;;11.27;;
8365;SDS011;4220;42.502;24.188;2022-12-29T00:04:56;20.43;;;11.53;;
8365;SDS011;4220;42.502;24.188;2022-12-29T00:07:23;14.33;;;10.57;;
8365;SDS011;4220;42.502;24.188;2022-12-29T00:09:51;12.00;;;9.23;;
8365;SDS011;4220;42.502;24.188;2022-12-29T00:12:18;11.27;;;6.67;;
8365;SDS011;4220;42.502;24.188;2022-12-29T00:14:44;8.73;;;6.77;;
8365;SDS011;4220;42.502;24.188;2022-12-29T00:17:29;9.97;;;7.53;;
8365;SDS011;4220;42.502;24.188;2022-12-29T00:19:56;9.07;;;7.37;;
8365;SDS011;4220;42.502;24.188;2022-12-29T00:22:40;12.53;;;9.23;;
8365;SDS011;4220;42.502;24.188;2022-12-29T00:25:25;13.73;;;10.17;;
8365;SDS011;4220;42.502;24.188;2022-12-29T00:28:10;15.20;;;11.43;;
8365;SDS011;4220;42.502;24.188;2022-12-29T00:30:58;13.47;;;10.17;;
8365;SDS011;4220;42.502;24.188;2022-12-29T00:33:43;13.60;;;10.23;;
8365;SDS011;4220;42.502;24.188;2022-12-29T00:36:28;15.57;;;8.53;;
8365;SDS011;4220;42.502;24.188;2022-12-29T00:38:59;9.83;;;8.43;;
8365;SDS011;4220;42.502;24.188;2022-12-29T00:42:03;13.07;;;9.27;;
8365;SDS011;4220;42.502;24.188;2022-12-29T00:44:48;9.67;;;7.50;;
8365;SDS011;4220;42.502;24.188;2022-12-29T00:47:15;9.07;;;7.13;;
8365;SDS011;4220;42.502;24.188;2022-12-29T00:49:42;10.10;;;6.50;;
8365;SDS011;4220;42.502;24.188;2022-12-29T00:52:08;8.27;;;6.50;;
8365;SDS011;4220;42.502;24.188;2022-12-29T00:54:37;7.73;;;5.53;;
8365;SDS011;4220;42.502;24.188;2022-12-29T00:57:07;7.10;;;5.77;;
8365;SDS011;4220;42.502;24.188;2022-12-29T00:59:35;7.93;;;5.77;;
8365;SDS011;4220;42.502;24.188;2022-12-29T01:02:02;6.83;;;5.70;;
8365;SDS011;4220;42.502;24.188;2022-12-29T01:04:29;7.67;;;5.37;;
8365;SDS011;4220;42.502;24.188;2022-12-29T01:06:56;6.40;;;5.50;;
8365;SDS011;4220;42.502;24.188;2022-12-29T01:09:23;7.17;;;4.60;;
8365;SDS011;4220;42.502;24.188;2022-12-29T01:12:09;7.27;;;4.73;;
8365;SDS011;4220;42.502;24.188;2022-12-29T01:14:36;11.80;;;8.60;;
8365;SDS011;4220;42.502;24.188;2022-12-29T01:17:03;10.93;;;8.53;;
8365;SDS011;4220;42.502;24.188;2022-12-29T01:19:31;9.90;;;8.90;;
8365;SDS011;4220;42.502;24.188;2022-12-29T01:21:57;7.27;;;6.57;;
8365;SDS011;4220;42.502;24.188;2022-12-29T01:24:24;9.37;;;5.10;;
8365;SDS011;4220;42.502;24.188;2022-12-29T01:26:51;6.87;;;6.10;;
8365;SDS011;4220;42.502;24.188;2022-12-29T01:29:20;13.07;;;8.03;;
8365;SDS011;4220;42.502;24.188;2022-12-29T01:31:47;12.43;;;8.10;;
8365;SDS011;4220;42.502;24.188;2022-12-29T01:34:15;10.13;;;6.30;;
8365;SDS011;4220;42.502;24.188;2022-12-29T01:36:41;5.33;;;4.80;;
8365;SDS011;4220;42.502;24.188;2022-12-29T01:39:08;6.20;;;5.47;;
8365;SDS011;4220;42.502;24.188;2022-12-29T01:41:35;7.33;;;5.07;;
8365;SDS011;4220;42.502;24.188;2022-12-29T01:44:02;7.93;;;5.33;;
8365;SDS011;4220;42.502;24.188;2022-12-29T01:46:31;7.33;;;5.10;;
8365;SDS011;4220;42.502;24.188;2022-12-29T01:49:04;7.10;;;5.23;;
8365;SDS011;4220;42.502;24.188;2022-12-29T01:51:37;7.10;;;5.10;;
8365;SDS011;4220;42.502;24.188;2022-12-29T01:54:07;7.67;;;4.80;;
8365;SDS011;4220;42.502;24.188;2022-12-29T01:56:40;6.53;;;5.33;;
8365;SDS011;4220;42.502;24.188;2022-12-29T01:59:08;11.93;;;8.30;;
8365;SDS011;4220;42.502;24.188;2022-12-29T02:01:42;9.97;;;7.00;;
8365;SDS011;4220;42.502;24.188;2022-12-29T02:04:09;10.43;;;8.47;;
8365;SDS011;4220;42.502;24.188;2022-12-29T02:06:40;8.60;;;7.67;;
8365;SDS011;4220;42.502;24.188;2022-12-29T02:09:11;8.70;;;6.70;;
8365;SDS011;4220;42.502;24.188;2022-12-29T02:11:38;6.50;;;5.57;;
8365;SDS011;4220;42.502;24.188;2022-12-29T02:14:07;10.93;;;9.07;;
8365;SDS011;4220;42.502;24.188;2022-12-29T02:16:47;7.40;;;6.60;;
8365;SDS011;4220;42.502;24.188;2022-12-29T02:19:46;11.20;;;7.33;;
8365;SDS011;4220;42.502;24.188;2022-12-29T02:22:34;8.17;;;6.27;;
8365;SDS011;4220;42.502;24.188;2022-12-29T02:25:26;11.00;;;6.97;;
8365;SDS011;4220;42.502;24.188;2022-12-29T02:28:15;10.90;;;7.57;;
8365;SDS011;4220;42.502;24.188;2022-12-29T02:31:08;23.47;;;13.10;;
8365;SDS011;4220;42.502;24.188;2022-12-29T02:33:47;10.80;;;7.90;;
8365;SDS011;4220;42.502;24.188;2022-12-29T02:36:24;11.57;;;7.23;;
8365;SDS011;4220;42.502;24.188;2022-12-29T02:38:59;7.33;;;5.63;;
8365;SDS011;4220;42.502;24.188;2022-12-29T02:41:31;8.43;;;6.80;;
8365;SDS011;4220;42.502;24.188;2022-12-29T02:44:01;9.90;;;7.67;;
8365;SDS011;4220;42.502;24.188;2022-12-29T02:46:41;14.33;;;9.13;;
8365;SDS011;4220;42.502;24.188;2022-12-29T02:49:12;14.70;;;13.10;;
8365;SDS011;4220;42.502;24.188;2022-12-29T02:51:47;13.07;;;10.67;;
8365;SDS011;4220;42.502;24.188;2022-12-29T02:54:19;7.53;;;6.53;;
8365;SDS011;4220;42.502;24.188;2022-12-29T02:57:05;5.90;;;5.30;;
8365;SDS011;4220;42.502;24.188;2022-12-29T02:59:34;4.83;;;4.33;;
8365;SDS011;4220;42.502;24.188;2022-12-29T03:02:20;4.73;;;4.23;;
8365;SDS011;4220;42.502;24.188;2022-12-29T03:05:13;5.07;;;4.50;;
8365;SDS011;4220;42.502;24.188;2022-12-29T03:07:58;6.53;;;5.57;;
8365;SDS011;4220;42.502;24.188;2022-12-29T03:10:35;6.73;;;5.40;;
8365;SDS011;4220;42.502;24.188;2022-12-29T03:13:12;6.93;;;4.27;;
8365;SDS011;4220;42.502;24.188;2022-12-29T03:16:04;5.00;;;4.20;;
8365;SDS011;4220;42.502;24.188;2022-12-29T03:18:44;6.63;;;4.20;;
8365;SDS011;4220;42.502;24.188;2022-12-29T03:21:17;5.23;;;4.23;;
8365;SDS011;4220;42.502;24.188;2022-12-29T03:24:11;7.67;;;5.17;;
8365;SDS011;4220;42.502;24.188;2022-12-29T03:26:39;7.23;;;5.20;;
8365;SDS011;4220;42.502;24.188;2022-12-29T03:29:10;5.77;;;4.80;;
8365;SDS011;4220;42.502;24.188;2022-12-29T03:31:38;8.50;;;5.57;;
8365;SDS011;4220;42.502;24.188;2022-12-29T03:34:08;7.20;;;5.97;;
8365;SDS011;4220;42.502;24.188;2022-12-29T03:36:39;6.27;;;5.40;;
8365;SDS011;4220;42.502;24.188;2022-12-29T03:39:11;7.60;;;5.97;;
8365;SDS011;4220;42.502;24.188;2022-12-29T03:41:40;7.53;;;6.07;;
8365;SDS011;4220;42.502;24.188;2022-12-29T03:44:09;9.23;;;8.17;;
8365;SDS011;4220;42.502;24.188;2022-12-29T03:46:37;11.33;;;10.33;;
8365;SDS011;4220;42.502;24.188;2022-12-29T03:49:03;6.53;;;5.37;;
8365;SDS011;4220;42.502;24.188;2022-12-29T03:51:32;7.50;;;6.20;;
8365;SDS011;4220;42.502;24.188;2022-12-29T03:53:59;7.30;;;6.47;;
8365;SDS011;4220;42.502;24.188;2022-12-29T03:56:25;5.77;;;5.17;;
8365;SDS011;4220;42.502;24.188;2022-12-29T03:58:52;7.53;;;6.10;;
8365;SDS011;4220;42.502;24.188;2022-12-29T04:01:19;6.43;;;5.40;;
8365;SDS011;4220;42.502;24.188;2022-12-29T04:03:46;7.10;;;4.73;;
8365;SDS011;4220;42.502;24.188;2022-12-29T04:06:13;5.80;;;4.47;;
8365;SDS011;4220;42.502;24.188;2022-12-29T04:08:41;14.57;;;8.03;;
8365;SDS011;4220;42.502;24.188;2022-12-29T04:11:08;7.13;;;5.90;;
8365;SDS011;4220;42.502;24.188;2022-12-29T04:13:35;8.17;;;6.83;;
8365;SDS011;4220;42.502;24.188;2022-12-29T04:16:02;8.27;;;6.90;;
8365;SDS011;4220;42.502;24.188;2022-12-29T04:18:29;8.07;;;6.80;;
8365;SDS011;4220;42.502;24.188;2022-12-29T04:20:56;6.20;;;5.30;;
8365;SDS011;4220;42.502;24.188;2022-12-29T04:23:26;8.20;;;6.60;;
8365;SDS011;4220;42.502;24.188;2022-12-29T04:25:54;12.43;;;9.50;;
8365;SDS011;4220;42.502;24.188;2022-12-29T04:28:21;10.67;;;7.70;;
8365;SDS011;4220;42.502;24.188;2022-12-29T04:30:48;13.10;;;11.77;;
8365;SDS011;4220;42.502;24.188;2022-12-29T04:33:15;15.17;;;12.93;;
8365;SDS011;4220;42.502;24.188;2022-12-29T04:35:42;12.03;;;10.40;;
8365;SDS011;4220;42.502;24.188;2022-12-29T04:38:09;12.80;;;8.30;;
8365;SDS011;4220;42.502;24.188;2022-12-29T04:40:37;11.27;;;8.03;;
8365;SDS011;4220;42.502;24.188;2022-12-29T04:43:06;11.17;;;8.60;;
8365;SDS011;4220;42.502;24.188;2022-12-29T04:45:33;18.70;;;13.57;;
8365;SDS011;4220;42.502;24.188;2022-12-29T04:48:00;22.23;;;15.43;;
8365;SDS011;4220;42.502;24.188;2022-12-29T04:50:27;20.03;;;14.27;;
8365;SDS011;4220;42.502;24.188;2022-12-29T04:52:54;21.17;;;14.47;;
8365;SDS011;4220;42.502;24.188;2022-12-29T04:55:21;22.97;;;14.60;;
8365;SDS011;4220;42.502;24.188;2022-12-29T04:57:47;19.50;;;12.77;;
8365;SDS011;4220;42.502;24.188;2022-12-29T05:00:16;20.07;;;13.60;;
8365;SDS011;4220;42.502;24.188;2022-12-29T05:02:43;20.33;;;14.07;;
8365;SDS011;4220;42.502;24.188;2022-12-29T05:05:09;23.23;;;14.03;;
8365;SDS011;4220;42.502;24.188;2022-12-29T05:07:36;23.77;;;13.70;;
8365;SDS011;4220;42.502;24.188;2022-12-29T05:10:04;19.63;;;13.20;;
8365;SDS011;4220;42.502;24.188;2022-12-29T05:12:31;12.83;;;9.33;;
8365;SDS011;4220;42.502;24.188;2022-12-29T05:14:59;12.73;;;8.27;;
8365;SDS011;4220;42.502;24.188;2022-12-29T05:17:29;12.80;;;8.57;;
8365;SDS011;4220;42.502;24.188;2022-12-29T05:19:56;8.03;;;6.40;;
8365;SDS011;4220;42.502;24.188;2022-12-29T05:22:23;8.00;;;7.13;;
8365;SDS011;4220;42.502;24.188;2022-12-29T05:24:50;16.33;;;9.97;;
8365;SDS011;4220;42.502;24.188;2022-12-29T05:27:17;16.77;;;11.10;;
8365;SDS011;4220;42.502;24.188;2022-12-29T05:29:43;20.97;;;14.10;;
8365;SDS011;4220;42.502;24.188;2022-12-29T05:32:10;12.03;;;8.80;;
8365;SDS011;4220;42.502;24.188;2022-12-29T05:34:38;20.27;;;13.20;;
8365;SDS011;4220;42.502;24.188;2022-12-29T05:37:05;27.83;;;18.33;;
8365;SDS011;4220;42.502;24.188;2022-12-29T05:39:32;19.73;;;13.73;;
8365;SDS011;4220;42.502;24.188;2022-12-29T05:41:59;16.50;;;10.50;;
8365;SDS011;4220;42.502;24.188;2022-12-29T05:44:26;14.20;;;9.83;;
8365;SDS011;4220;42.502;24.188;2022-12-29T05:46:52;13.43;;;10.07;;
8365;SDS011;4220;42.502;24.188;2022-12-29T05:49:19;10.30;;;7.27;;
8365;SDS011;4220;42.502;24.188;2022-12-29T05:51:47;17.27;;;14.97;;
8365;SDS011;4220;42.502;24.188;2022-12-29T05:54:14;14.40;;;10.80;;
8365;SDS011;4220;42.502;24.188;2022-12-29T05:56:41;11.90;;;10.23;;
8365;SDS011;4220;42.502;24.188;2022-12-29T05:59:08;16.40;;;13.60;;
8365;SDS011;4220;42.502;24.188;2022-12-29T06:01:35;14.40;;;13.00;;
8365;SDS011;4220;42.502;24.188;2022-12-29T06:04:02;15.23;;;12.03;;
8365;SDS011;4220;42.502;24.188;2022-12-29T06:06:29;17.10;;;11.57;;
8365;SDS011;4220;42.502;24.188;2022-12-29T06:08:57;10.33;;;8.30;;
8365;SDS011;4220;42.502;24.188;2022-12-29T06:11:23;9.97;;;7.77;;
8365;SDS011;4220;42.502;24.188;2022-12-29T06:13:50;9.37;;;6.50;;
8365;SDS011;4220;42.502;24.188;2022-12-29T06:16:17;7.53;;;6.37;;
8365;SDS011;4220;42.502;24.188;2022-12-29T06:18:45;8.73;;;6.43;;
8365;SDS011;4220;42.502;24.188;2022-12-29T06:21:12;12.87;;;8.43;;
8365;SDS011;4220;42.502;24.188;2022-12-29T06:23:38;7.90;;;6.17;;
8365;SDS011;4220;42.502;24.188;2022-12-29T06:26:06;7.27;;;5.87;;
8365;SDS011;4220;42.502;24.188;2022-12-29T06:28:34;8.90;;;5.80;;
8365;SDS011;4220;42.502;24.188;2022-12-29T06:31:00;13.13;;;6.60;;
8365;SDS011;4220;42.502;24.188;2022-12-29T06:33:28;11.10;;;6.30;;
8365;SDS011;4220;42.502;24.188;2022-12-29T06:35:55;9.80;;;6.57;;
8365;SDS011;4220;42.502;24.188;2022-12-29T06:38:21;7.57;;;5.83;;
8365;SDS011;4220;42.502;24.188;2022-12-29T06:40:48;5.97;;;5.37;;
8365;SDS011;4220;42.502;24.188;2022-12-29T06:43:16;10.23;;;6.17;;
8365;SDS011;4220;42.502;24.188;2022-12-29T06:45:43;7.60;;;6.90;;
8365;SDS011;4220;42.502;24.188;2022-12-29T06:48:10;11.60;;;6.90;;
8365;SDS011;4220;42.502;24.188;2022-12-29T06:50:37;8.27;;;6.27;;
8365;SDS011;4220;42.502;24.188;2022-12-29T06:53:04;7.23;;;5.80;;
8365;SDS011;4220;42.502;24.188;2022-12-29T06:55:31;8.07;;;7.27;;
8365;SDS011;4220;42.502;24.188;2022-12-29T06:57:58;8.93;;;7.17;;
8365;SDS011;4220;42.502;24.188;2022-12-29T07:00:27;11.90;;;7.67;;
8365;SDS011;4220;42.502;24.188;2022-12-29T07:02:54;10.90;;;8.00;;
8365;SDS011;4220;42.502;24.188;2022-12-29T07:05:23;11.70;;;9.03;;
8365;SDS011;4220;42.502;24.188;2022-12-29T07:07:51;13.07;;;11.03;;
8365;SDS011;4220;42.502;24.188;2022-12-29T07:10:18;16.60;;;13.73;;
8365;SDS011;4220;42.502;24.188;2022-12-29T07:12:45;21.50;;;12.97;;
8365;SDS011;4220;42.502;24.188;2022-12-29T07:15:12;20.67;;;13.23;;
8365;SDS011;4220;42.502;24.188;2022-12-29T07:17:40;15.23;;;12.17;;
8365;SDS011;4220;42.502;24.188;2022-12-29T07:20:07;25.37;;;17.73;;
8365;SDS011;4220;42.502;24.188;2022-12-29T07:22:35;26.33;;;21.03;;
8365;SDS011;4220;42.502;24.188;2022-12-29T07:25:02;95.80;;;49.60;;
8365;SDS011;4220;42.502;24.188;2022-12-29T07:27:29;60.80;;;38.93;;
8365;SDS011;4220;42.502;24.188;2022-12-29T07:29:56;57.10;;;37.63;;
8365;SDS011;4220;42.502;24.188;2022-12-29T07:32:23;52.43;;;36.30;;
8365;SDS011;4220;42.502;24.188;2022-12-29T07:34:51;63.67;;;38.53;;
8365;SDS011;4220;42.502;24.188;2022-12-29T07:37:18;294.07;;;165.63;;
8365;SDS011;4220;42.502;24.188;2022-12-29T07:39:45;132.40;;;81.17;;
8365;SDS011;4220;42.502;24.188;2022-12-29T07:42:12;68.57;;;44.63;;
8365;SDS011;4220;42.502;24.188;2022-12-29T07:44:39;68.77;;;43.73;;
8365;SDS011;4220;42.502;24.188;2022-12-29T07:47:05;296.47;;;167.37;;
8365;SDS011;4220;42.502;24.188;2022-12-29T07:49:32;177.03;;;102.57;;
8365;SDS011;4220;42.502;24.188;2022-12-29T07:52:00;79.60;;;51.90;;
8365;SDS011;4220;42.502;24.188;2022-12-29T07:54:27;221.60;;;126.90;;
8365;SDS011;4220;42.502;24.188;2022-12-29T07:56:54;189.97;;;107.73;;
8365;SDS011;4220;42.502;24.188;2022-12-29T07:59:22;103.30;;;66.67;;
8365;SDS011;4220;42.502;24.188;2022-12-29T08:01:49;75.43;;;49.80;;
8365;SDS011;4220;42.502;24.188;2022-12-29T08:04:16;76.10;;;51.17;;
8365;SDS011;4220;42.502;24.188;2022-12-29T08:06:43;73.90;;;51.37;;
8365;SDS011;4220;42.502;24.188;2022-12-29T08:09:12;73.87;;;49.10;;
8365;SDS011;4220;42.502;24.188;2022-12-29T08:11:38;166.53;;;98.57;;
8365;SDS011;4220;42.502;24.188;2022-12-29T08:14:06;223.80;;;136.57;;
8365;SDS011;4220;42.502;24.188;2022-12-29T08:16:33;156.20;;;97.57;;
8365;SDS011;4220;42.502;24.188;2022-12-29T08:19:00;115.03;;;75.77;;
8365;SDS011;4220;42.502;24.188;2022-12-29T08:21:27;103.33;;;67.03;;
8365;SDS011;4220;42.502;24.188;2022-12-29T08:23:54;89.10;;;60.37;;
8365;SDS011;4220;42.502;24.188;2022-12-29T08:26:22;323.00;;;199.23;;
8365;SDS011;4220;42.502;24.188;2022-12-29T08:28:51;235.30;;;135.70;;
8365;SDS011;4220;42.502;24.188;2022-12-29T08:31:18;86.27;;;55.23;;
8365;SDS011;4220;42.502;24.188;2022-12-29T08:33:45;52.83;;;34.37;;
8365;SDS011;4220;42.502;24.188;2022-12-29T08:36:12;40.57;;;28.40;;
8365;SDS011;4220;42.502;24.188;2022-12-29T08:38:39;41.67;;;26.97;;
8365;SDS011;4220;42.502;24.188;2022-12-29T08:41:06;34.20;;;26.07;;
8365;SDS011;4220;42.502;24.188;2022-12-29T08:43:34;33.27;;;24.60;;
8365;SDS011;4220;42.502;24.188;2022-12-29T08:46:01;32.83;;;25.23;;
8365;SDS011;4220;42.502;24.188;2022-12-29T08:48:28;47.80;;;33.77;;
8365;SDS011;4220;42.502;24.188;2022-12-29T08:50:54;50.37;;;32.97;;
8365;SDS011;4220;42.502;24.188;2022-12-29T08:53:21;33.10;;;23.03;;
8365;SDS011;4220;42.502;24.188;2022-12-29T08:55:54;23.97;;;19.60;;
8365;SDS011;4220;42.502;24.188;2022-12-29T08:58:22;33.97;;;24.03;;
8365;SDS011;4220;42.502;24.188;2022-12-29T09:00:51;30.63;;;22.67;;
8365;SDS011;4220;42.502;24.188;2022-12-29T09:03:18;30.33;;;22.40;;
8365;SDS011;4220;42.502;24.188;2022-12-29T09:05:47;31.17;;;23.77;;
8365;SDS011;4220;42.502;24.188;2022-12-29T09:08:14;44.77;;;29.50;;
8365;SDS011;4220;42.502;24.188;2022-12-29T09:10:41;34.07;;;25.13;;
8365;SDS011;4220;42.502;24.188;2022-12-29T09:13:08;26.77;;;20.83;;
8365;SDS011;4220;42.502;24.188;2022-12-29T09:15:34;35.80;;;21.40;;
8365;SDS011;4220;42.502;24.188;2022-12-29T09:18:03;24.70;;;18.03;;
8365;SDS011;4220;42.502;24.188;2022-12-29T09:20:30;25.43;;;17.07;;
8365;SDS011;4220;42.502;24.188;2022-12-29T09:22:57;23.20;;;17.63;;
8365;SDS011;4220;42.502;24.188;2022-12-29T09:25:23;18.63;;;14.07;;
8365;SDS011;4220;42.502;24.188;2022-12-29T09:27:50;17.87;;;15.00;;
8365;SDS011;4220;42.502;24.188;2022-12-29T09:30:19;23.30;;;16.83;;
8365;SDS011;4220;42.502;24.188;2022-12-29T09:32:47;24.27;;;17.30;;
8365;SDS011;4220;42.502;24.188;2022-12-29T09:35:16;22.13;;;17.20;;
8365;SDS011;4220;42.502;24.188;2022-12-29T09:37:43;18.70;;;13.63;;
8365;SDS011;4220;42.502;24.188;2022-12-29T09:40:23;15.77;;;11.17;;
8365;SDS011;4220;42.502;24.188;2022-12-29T09:45:49;19.90;;;11.63;;
8365;SDS011;4220;42.502;24.188;2022-12-29T09:48:22;12.60;;;9.73;;
8365;SDS011;4220;42.502;24.188;2022-12-29T09:50:56;19.03;;;11.80;;
8365;SDS011;4220;42.502;24.188;2022-12-29T09:53:26;17.20;;;11.47;;
8365;SDS011;4220;42.502;24.188;2022-12-29T09:55:59;35.40;;;24.17;;
8365;SDS011;4220;42.502;24.188;2022-12-29T09:58:28;20.97;;;15.77;;
8365;SDS011;4220;42.502;24.188;2022-12-29T10:01:01;19.83;;;14.53;;
8365;SDS011;4220;42.502;24.188;2022-12-29T10:03:32;24.80;;;19.43;;
8365;SDS011;4220;42.502;24.188;2022-12-29T10:06:13;23.17;;;18.50;;
8365;SDS011;4220;42.502;24.188;2022-12-29T10:08:47;18.87;;;13.57;;
8365;SDS011;4220;42.502;24.188;2022-12-29T10:11:26;21.07;;;13.07;;
8365;SDS011;4220;42.502;24.188;2022-12-29T10:14:09;18.57;;;12.47;;
8365;SDS011;4220;42.502;24.188;2022-12-29T10:16:47;12.97;;;10.57;;
8365;SDS011;4220;42.502;24.188;2022-12-29T10:19:33;15.03;;;10.53;;
8365;SDS011;4220;42.502;24.188;2022-12-29T10:22:15;14.03;;;11.17;;
8365;SDS011;4220;42.502;24.188;2022-12-29T10:24:48;19.67;;;15.47;;
8365;SDS011;4220;42.502;24.188;2022-12-29T10:27:17;14.80;;;10.67;;
8365;SDS011;4220;42.502;24.188;2022-12-29T10:29:44;14.73;;;10.70;;
8365;SDS011;4220;42.502;24.188;2022-12-29T10:32:18;11.57;;;10.03;;
8365;SDS011;4220;42.502;24.188;2022-12-29T10:34:53;13.43;;;10.97;;
8365;SDS011;4220;42.502;24.188;2022-12-29T10:37:27;12.47;;;11.03;;
8365;SDS011;4220;42.502;24.188;2022-12-29T10:39:59;15.10;;;12.25;;
8365;SDS011;4220;42.502;24.188;2022-12-29T10:42:32;15.10;;;11.40;;
8365;SDS011;4220;42.502;24.188;2022-12-29T10:45:03;17.58;;;12.52;;
8365;SDS011;4220;42.502;24.188;2022-12-29T10:47:33;20.00;;;15.75;;
8365;SDS011;4220;42.502;24.188;2022-12-29T10:50:04;31.58;;;20.90;;
8365;SDS011;4220;42.502;24.188;2022-12-29T10:52:34;18.88;;;13.18;;
8365;SDS011;4220;42.502;24.188;2022-12-29T10:55:04;17.60;;;11.77;;
8365;SDS011;4220;42.502;24.188;2022-12-29T10:57:39;12.98;;;11.18;;
8365;SDS011;4220;42.502;24.188;2022-12-29T11:00:11;12.60;;;10.23;;
8365;SDS011;4220;42.502;24.188;2022-12-29T11:02:46;12.52;;;10.35;;
8365;SDS011;4220;42.502;24.188;2022-12-29T11:05:26;12.57;;;9.07;;
8365;SDS011;4220;42.502;24.188;2022-12-29T11:08:03;15.02;;;11.80;;
8365;SDS011;4220;42.502;24.188;2022-12-29T11:10:35;16.80;;;13.35;;
8365;SDS011;4220;42.502;24.188;2022-12-29T11:13:10;20.08;;;11.45;;
8365;SDS011;4220;42.502;24.188;2022-12-29T11:15:39;15.98;;;11.05;;
8365;SDS011;4220;42.502;24.188;2022-12-29T11:18:16;16.50;;;12.57;;
8365;SDS011;4220;42.502;24.188;2022-12-29T11:20:45;11.18;;;9.65;;
8365;SDS011;4220;42.502;24.188;2022-12-29T11:23:22;12.93;;;11.50;;
8365;SDS011;4220;42.502;24.188;2022-12-29T11:26:05;16.52;;;11.20;;
8365;SDS011;4220;42.502;24.188;2022-12-29T11:28:33;13.18;;;10.82;;
8365;SDS011;4220;42.502;24.188;2022-12-29T11:31:01;16.65;;;11.18;;
8365;SDS011;4220;42.502;24.188;2022-12-29T11:33:30;11.88;;;10.27;;
8365;SDS011;4220;42.502;24.188;2022-12-29T11:35:57;13.25;;;9.82;;
8365;SDS011;4220;42.502;24.188;2022-12-29T11:38:33;10.70;;;8.98;;
8365;SDS011;4220;42.502;24.188;2022-12-29T11:41:02;9.07;;;7.95;;
8365;SDS011;4220;42.502;24.188;2022-12-29T11:43:31;10.45;;;9.35;;
8365;SDS011;4220;42.502;24.188;2022-12-29T11:46:00;11.20;;;7.85;;
8365;SDS011;4220;42.502;24.188;2022-12-29T11:48:29;11.63;;;9.63;;
8365;SDS011;4220;42.502;24.188;2022-12-29T11:50:58;13.80;;;10.80;;
8365;SDS011;4220;42.502;24.188;2022-12-29T11:53:28;8.82;;;7.85;;
8365;SDS011;4220;42.502;24.188;2022-12-29T11:56:04;9.15;;;8.25;;
8365;SDS011;4220;42.502;24.188;2022-12-29T11:58:35;10.75;;;8.57;;
8365;SDS011;4220;42.502;24.188;2022-12-29T12:01:04;11.32;;;8.68;;
8365;SDS011;4220;42.502;24.188;2022-12-29T12:03:35;12.70;;;8.55;;
8365;SDS011;4220;42.502;24.188;2022-12-29T12:06:07;10.95;;;8.57;;
8365;SDS011;4220;42.502;24.188;2022-12-29T12:08:43;8.88;;;7.95;;
8365;SDS011;4220;42.502;24.188;2022-12-29T12:11:14;9.88;;;8.52;;
8365;SDS011;4220;42.502;24.188;2022-12-29T12:13:46;14.63;;;9.50;;
8365;SDS011;4220;42.502;24.188;2022-12-29T12:16:22;14.93;;;10.48;;
8365;SDS011;4220;42.502;24.188;2022-12-29T12:18:54;10.73;;;9.27;;
8365;SDS011;4220;42.502;24.188;2022-12-29T12:21:25;13.88;;;11.48;;
8365;SDS011;4220;42.502;24.188;2022-12-29T12:24:07;16.35;;;12.65;;
8365;SDS011;4220;42.502;24.188;2022-12-29T12:26:49;19.23;;;13.50;;
8365;SDS011;4220;42.502;24.188;2022-12-29T12:29:24;15.27;;;10.93;;
8365;SDS011;4220;42.502;24.188;2022-12-29T12:31:55;16.23;;;11.13;;
8365;SDS011;4220;42.502;24.188;2022-12-29T12:34:27;14.63;;;11.00;;
8365;SDS011;4220;42.502;24.188;2022-12-29T12:37:06;18.30;;;15.32;;
8365;SDS011;4220;42.502;24.188;2022-12-29T12:40:04;24.73;;;18.80;;
8365;SDS011;4220;42.502;24.188;2022-12-29T12:42:44;25.77;;;20.90;;
8365;SDS011;4220;42.502;24.188;2022-12-29T12:45:32;17.58;;;14.63;;
8365;SDS011;4220;42.502;24.188;2022-12-29T12:48:13;29.90;;;25.00;;
8365;SDS011;4220;42.502;24.188;2022-12-29T12:50:55;18.42;;;14.80;;
8365;SDS011;4220;42.502;24.188;2022-12-29T12:53:35;19.33;;;14.35;;
8365;SDS011;4220;42.502;24.188;2022-12-29T12:56:22;18.20;;;15.98;;
8365;SDS011;4220;42.502;24.188;2022-12-29T12:59:03;26.90;;;24.08;;
8365;SDS011;4220;42.502;24.188;2022-12-29T13:01:38;16.48;;;14.70;;
8365;SDS011;4220;42.502;24.188;2022-12-29T13:04:26;25.95;;;20.80;;
8365;SDS011;4220;42.502;24.188;2022-12-29T13:07:05;14.40;;;11.32;;
8365;SDS011;4220;42.502;24.188;2022-12-29T13:09:48;26.95;;;19.60;;
8365;SDS011;4220;42.502;24.188;2022-12-29T13:12:32;16.90;;;15.00;;
8365;SDS011;4220;42.502;24.188;2022-12-29T13:15:09;20.35;;;15.55;;
8365;SDS011;4220;42.502;24.188;2022-12-29T13:17:43;21.50;;;14.25;;
8365;SDS011;4220;42.502;24.188;2022-12-29T13:20:19;26.92;;;18.98;;
8365;SDS011;4220;42.502;24.188;2022-12-29T13:22:55;16.95;;;14.20;;
8365;SDS011;4220;42.502;24.188;2022-12-29T13:25:30;15.80;;;12.35;;
8365;SDS011;4220;42.502;24.188;2022-12-29T13:28:06;15.68;;;13.23;;
8365;SDS011;4220;42.502;24.188;2022-12-29T13:30:39;21.10;;;15.88;;
8365;SDS011;4220;42.502;24.188;2022-12-29T13:33:13;15.68;;;13.85;;
8365;SDS011;4220;42.502;24.188;2022-12-29T13:35:51;20.33;;;14.18;;
8365;SDS011;4220;42.502;24.188;2022-12-29T13:38:23;21.15;;;15.50;;
8365;SDS011;4220;42.502;24.188;2022-12-29T13:40:55;18.23;;;15.63;;
8365;SDS011;4220;42.502;24.188;2022-12-29T13:43:28;16.95;;;12.35;;
8365;SDS011;4220;42.502;24.188;2022-12-29T13:45:58;41.75;;;31.77;;
8365;SDS011;4220;42.502;24.188;2022-12-29T13:48:34;87.38;;;68.07;;
8365;SDS011;4220;42.502;24.188;2022-12-29T13:51:06;31.58;;;23.60;;
8365;SDS011;4220;42.502;24.188;2022-12-29T13:53:37;20.33;;;15.98;;
8365;SDS011;4220;42.502;24.188;2022-12-29T13:56:23;53.80;;;37.50;;
8365;SDS011;4220;42.502;24.188;2022-12-29T13:59:02;131.07;;;91.00;;
8365;SDS011;4220;42.502;24.188;2022-12-29T14:01:37;19.55;;;15.43;;
8365;SDS011;4220;42.502;24.188;2022-12-29T14:04:11;17.20;;;13.52;;
8365;SDS011;4220;42.502;24.188;2022-12-29T14:06:39;14.60;;;10.70;;
8365;SDS011;4220;42.502;24.188;2022-12-29T14:11:58;48.83;;;39.13;;
8365;SDS011;4220;42.502;24.188;2022-12-29T14:14:27;55.13;;;38.85;;
8365;SDS011;4220;42.502;24.188;2022-12-29T14:17:01;30.70;;;25.80;;
8365;SDS011;4220;42.502;24.188;2022-12-29T14:19:36;24.63;;;15.05;;
8365;SDS011;4220;42.502;24.188;2022-12-29T14:22:07;28.92;;;16.45;;
8365;SDS011;4220;42.502;24.188;2022-12-29T14:24:38;17.02;;;14.02;;
8365;SDS011;4220;42.502;24.188;2022-12-29T14:33:27;20.30;;;16.13;;
8365;SDS011;4220;42.502;24.188;2022-12-29T14:35:56;19.65;;;14.63;;
8365;SDS011;4220;42.502;24.188;2022-12-29T14:38:24;17.95;;;14.73;;
8365;SDS011;4220;42.502;24.188;2022-12-29T14:43:56;27.13;;;20.92;;
8365;SDS011;4220;42.502;24.188;2022-12-29T14:49:20;28.33;;;19.88;;
8365;SDS011;4220;42.502;24.188;2022-12-29T14:51:50;27.05;;;21.63;;
8365;SDS011;4220;42.502;24.188;2022-12-29T15:00:12;21.00;;;15.60;;
8365;SDS011;4220;42.502;24.188;2022-12-29T15:02:45;21.60;;;16.17;;
8365;SDS011;4220;42.502;24.188;2022-12-29T15:05:32;22.73;;;18.10;;
8365;SDS011;4220;42.502;24.188;2022-12-29T15:08:03;29.08;;;19.58;;
8365;SDS011;4220;42.502;24.188;2022-12-29T15:10:33;36.05;;;24.98;;
8365;SDS011;4220;42.502;24.188;2022-12-29T15:13:04;46.08;;;29.63;;
8365;SDS011;4220;42.502;24.188;2022-12-29T15:15:39;37.47;;;27.47;;
8365;SDS011;4220;42.502;24.188;2022-12-29T15:18:21;32.10;;;23.17;;
8365;SDS011;4220;42.502;24.188;2022-12-29T15:20:52;56.40;;;41.93;;
8365;SDS011;4220;42.502;24.188;2022-12-29T15:23:21;39.53;;;27.47;;
8365;SDS011;4220;42.502;24.188;2022-12-29T15:25:50;35.10;;;28.37;;
8365;SDS011;4220;42.502;24.188;2022-12-29T15:28:20;50.83;;;33.97;;
8365;SDS011;4220;42.502;24.188;2022-12-29T15:30:52;55.03;;;36.03;;